sensor_id;sensor_type;location;lat;lon;timestamp;temperature;humidity
67249;SHT31;63247;54.300;18.592;2023-12-28T00:00:13;0.98;99.99
67249;SHT31;63247;54.300;18.592;2023-12-28T00:02:38;0.96;99.99
67249;SHT31;63247;54.300;18.592;2023-12-28T00:05:06;0.75;99.99
67249;SHT31;63247;54.300;18.592;2023-12-28T00:07:31;0.80;99.99
67249;SHT31;63247;54.300;18.592;2023-12-28T00:09:57;0.80;99.99
67249;SHT31;63247;54.300;18.592;2023-12-28T00:12:22;0.78;99.99
67249;SHT31;63247;54.300;18.592;2023-12-28T00:14:48;0.77;99.99
67249;SHT31;63247;54.300;18.592;2023-12-28T00:17:13;0.84;99.99
67249;SHT31;63247;54.300;18.592;2023-12-28T00:19:39;0.87;99.99
67249;SHT31;63247;54.300;18.592;2023-12-28T00:22:04;0.81;99.99
67249;SHT31;63247;54.300;18.592;2023-12-28T00:24:29;0.78;99.99
67249;SHT31;63247;54.300;18.592;2023-12-28T00:26:55;0.68;99.99
67249;SHT31;63247;54.300;18.592;2023-12-28T00:29:20;0.68;99.99
67249;SHT31;63247;54.300;18.592;2023-12-28T00:31:45;0.68;99.99
67249;SHT31;63247;54.300;18.592;2023-12-28T00:34:11;0.60;99.99
67249;SHT31;63247;54.300;18.592;2023-12-28T00:36:36;0.57;99.99
67249;SHT31;63247;54.300;18.592;2023-12-28T00:39:02;0.58;99.99
67249;SHT31;63247;54.300;18.592;2023-12-28T00:41:27;0.57;99.99
67249;SHT31;63247;54.300;18.592;2023-12-28T00:43:53;0.56;99.99
67249;SHT31;63247;54.300;18.592;2023-12-28T00:46:18;0.60;99.99
67249;SHT31;63247;54.300;18.592;2023-12-28T00:48:43;0.64;99.99
67249;SHT31;63247;54.300;18.592;2023-12-28T00:51:09;0.60;99.99
67249;SHT31;63247;54.300;18.592;2023-12-28T00:53:34;0.68;99.99
67249;SHT31;63247;54.300;18.592;2023-12-28T00:56:00;0.64;99.99
67249;SHT31;63247;54.300;18.592;2023-12-28T00:58:25;0.71;99.99
67249;SHT31;63247;54.300;18.592;2023-12-28T01:00:50;0.61;99.99
67249;SHT31;63247;54.300;18.592;2023-12-28T01:03:19;0.70;99.99
67249;SHT31;63247;54.300;18.592;2023-12-28T01:05:44;0.68;99.99
67249;SHT31;63247;54.300;18.592;2023-12-28T01:08:12;0.72;99.99
67249;SHT31;63247;54.300;18.592;2023-12-28T01:10:38;0.72;99.99
67249;SHT31;63247;54.300;18.592;2023-12-28T01:13:03;0.62;99.99
67249;SHT31;63247;54.300;18.592;2023-12-28T01:15:28;0.62;99.99
67249;SHT31;63247;54.300;18.592;2023-12-28T01:17:54;0.54;99.99
67249;SHT31;63247;54.300;18.592;2023-12-28T01:20:19;0.58;99.99
67249;SHT31;63247;54.300;18.592;2023-12-28T01:22:44;0.50;99.99
67249;SHT31;63247;54.300;18.592;2023-12-28T01:25:10;0.56;99.99
67249;SHT31;63247;54.300;18.592;2023-12-28T01:27:35;0.57;99.99
67249;SHT31;63247;54.300;18.592;2023-12-28T01:30:01;0.50;99.99
67249;SHT31;63247;54.300;18.592;2023-12-28T01:32:26;0.57;99.99
67249;SHT31;63247;54.300;18.592;2023-12-28T01:34:52;0.53;99.99
67249;SHT31;63247;54.300;18.592;2023-12-28T01:37:17;0.56;99.99
67249;SHT31;63247;54.300;18.592;2023-12-28T01:39:42;0.56;99.99
67249;SHT31;63247;54.300;18.592;2023-12-28T01:42:09;0.57;99.99
67249;SHT31;63247;54.300;18.592;2023-12-28T01:44:34;0.51;99.99
67249;SHT31;63247;54.300;18.592;2023-12-28T01:47:00;0.56;99.99
67249;SHT31;63247;54.300;18.592;2023-12-28T01:49:25;0.58;99.99
67249;SHT31;63247;54.300;18.592;2023-12-28T01:51:51;0.51;99.99
67249;SHT31;63247;54.300;18.592;2023-12-28T01:54:16;0.46;99.99
67249;SHT31;63247;54.300;18.592;2023-12-28T01:56:43;0.36;99.99
67249;SHT31;63247;54.300;18.592;2023-12-28T01:59:09;0.32;99.99
67249;SHT31;63247;54.300;18.592;2023-12-28T02:01:34;0.30;99.99
67249;SHT31;63247;54.300;18.592;2023-12-28T02:04:00;0.30;99.99
67249;SHT31;63247;54.300;18.592;2023-12-28T02:06:26;0.40;99.99
67249;SHT31;63247;54.300;18.592;2023-12-28T02:08:51;0.36;99.99
67249;SHT31;63247;54.300;18.592;2023-12-28T02:11:18;0.37;99.99
67249;SHT31;63247;54.300;18.592;2023-12-28T02:13:44;0.34;99.99
67249;SHT31;63247;54.300;18.592;2023-12-28T02:16:17;0.27;99.99
67249;SHT31;63247;54.300;18.592;2023-12-28T02:18:51;0.27;99.99
67249;SHT31;63247;54.300;18.592;2023-12-28T02:21:20;0.32;99.99
67249;SHT31;63247;54.300;18.592;2023-12-28T02:23:49;0.23;99.99
67249;SHT31;63247;54.300;18.592;2023-12-28T02:26:16;0.37;99.99
67249;SHT31;63247;54.300;18.592;2023-12-28T02:28:41;0.33;99.99
67249;SHT31;63247;54.300;18.592;2023-12-28T02:31:08;0.36;99.99
67249;SHT31;63247;54.300;18.592;2023-12-28T02:33:54;0.44;99.99
67249;SHT31;63247;54.300;18.592;2023-12-28T02:36:24;0.32;99.99
67249;SHT31;63247;54.300;18.592;2023-12-28T02:38:51;0.39;99.99
67249;SHT31;63247;54.300;18.592;2023-12-28T02:41:18;0.43;99.99
67249;SHT31;63247;54.300;18.592;2023-12-28T02:43:43;0.36;99.99
67249;SHT31;63247;54.300;18.592;2023-12-28T02:46:09;0.44;99.99
67249;SHT31;63247;54.300;18.592;2023-12-28T02:48:34;0.46;99.99
67249;SHT31;63247;54.300;18.592;2023-12-28T02:51:00;0.46;99.99
67249;SHT31;63247;54.300;18.592;2023-12-28T02:53:25;0.57;99.99
67249;SHT31;63247;54.300;18.592;2023-12-28T02:55:50;0.53;99.99
67249;SHT31;63247;54.300;18.592;2023-12-28T02:58:16;0.57;99.99
67249;SHT31;63247;54.300;18.592;2023-12-28T03:00:41;0.60;99.99
67249;SHT31;63247;54.300;18.592;2023-12-28T03:03:06;0.60;99.99
67249;SHT31;63247;54.300;18.592;2023-12-28T03:05:32;0.62;99.99
67249;SHT31;63247;54.300;18.592;2023-12-28T03:07:57;0.64;99.99
67249;SHT31;63247;54.300;18.592;2023-12-28T03:10:23;0.60;99.99
67249;SHT31;63247;54.300;18.592;2023-12-28T03:12:48;0.68;99.99
67249;SHT31;63247;54.300;18.592;2023-12-28T03:15:15;0.72;99.99
67249;SHT31;63247;54.300;18.592;2023-12-28T03:17:40;0.75;99.99
67249;SHT31;63247;54.300;18.592;2023-12-28T03:20:06;0.75;99.99
67249;SHT31;63247;54.300;18.592;2023-12-28T03:22:31;0.78;99.99
67249;SHT31;63247;54.300;18.592;2023-12-28T03:24:57;0.74;99.99
67249;SHT31;63247;54.300;18.592;2023-12-28T03:27:22;0.84;99.99
67249;SHT31;63247;54.300;18.592;2023-12-28T03:29:47;0.85;99.99
67249;SHT31;63247;54.300;18.592;2023-12-28T03:32:14;0.75;99.99
67249;SHT31;63247;54.300;18.592;2023-12-28T03:34:39;0.80;99.99
67249;SHT31;63247;54.300;18.592;2023-12-28T03:37:05;0.81;99.99
67249;SHT31;63247;54.300;18.592;2023-12-28T03:39:30;0.82;99.99
67249;SHT31;63247;54.300;18.592;2023-12-28T03:41:55;0.82;99.99
67249;SHT31;63247;54.300;18.592;2023-12-28T03:44:21;0.80;99.99
67249;SHT31;63247;54.300;18.592;2023-12-28T03:46:50;0.91;99.99
67249;SHT31;63247;54.300;18.592;2023-12-28T03:49:19;0.89;99.99
67249;SHT31;63247;54.300;18.592;2023-12-28T03:51:45;0.88;99.99
67249;SHT31;63247;54.300;18.592;2023-12-28T03:54:11;0.78;99.99
67249;SHT31;63247;54.300;18.592;2023-12-28T03:56:36;0.87;99.99
67249;SHT31;63247;54.300;18.592;2023-12-28T03:59:05;0.85;99.99
67249;SHT31;63247;54.300;18.592;2023-12-28T04:01:30;0.84;99.99
67249;SHT31;63247;54.300;18.592;2023-12-28T04:03:55;0.87;99.99
67249;SHT31;63247;54.300;18.592;2023-12-28T04:06:21;0.80;99.99
67249;SHT31;63247;54.300;18.592;2023-12-28T04:08:46;0.81;99.99
67249;SHT31;63247;54.300;18.592;2023-12-28T04:11:11;0.68;99.99
67249;SHT31;63247;54.300;18.592;2023-12-28T04:13:37;0.68;99.99
67249;SHT31;63247;54.300;18.592;2023-12-28T04:16:02;0.64;99.99
67249;SHT31;63247;54.300;18.592;2023-12-28T04:18:29;0.60;99.99
67249;SHT31;63247;54.300;18.592;2023-12-28T04:20:55;0.60;99.99
67249;SHT31;63247;54.300;18.592;2023-12-28T04:23:20;0.62;99.99
67249;SHT31;63247;54.300;18.592;2023-12-28T04:25:45;0.57;99.99
67249;SHT31;63247;54.300;18.592;2023-12-28T04:28:11;0.60;99.99
67249;SHT31;63247;54.300;18.592;2023-12-28T04:30:36;0.62;99.99
67249;SHT31;63247;54.300;18.592;2023-12-28T04:33:02;0.70;99.99
67249;SHT31;63247;54.300;18.592;2023-12-28T04:35:28;0.68;99.99
67249;SHT31;63247;54.300;18.592;2023-12-28T04:37:54;0.75;99.99
67249;SHT31;63247;54.300;18.592;2023-12-28T04:40:19;0.77;99.99
67249;SHT31;63247;54.300;18.592;2023-12-28T04:42:44;0.75;99.99
67249;SHT31;63247;54.300;18.592;2023-12-28T04:45:10;0.78;99.99
67249;SHT31;63247;54.300;18.592;2023-12-28T04:47:36;0.85;99.99
67249;SHT31;63247;54.300;18.592;2023-12-28T04:50:02;0.85;99.99
67249;SHT31;63247;54.300;18.592;2023-12-28T04:52:28;0.85;99.99
67249;SHT31;63247;54.300;18.592;2023-12-28T04:54:53;0.87;99.99
67249;SHT31;63247;54.300;18.592;2023-12-28T04:57:19;0.91;99.99
67249;SHT31;63247;54.300;18.592;2023-12-28T04:59:44;0.85;99.99
67249;SHT31;63247;54.300;18.592;2023-12-28T05:02:10;0.96;99.99
67249;SHT31;63247;54.300;18.592;2023-12-28T05:04:38;0.95;99.99
67249;SHT31;63247;54.300;18.592;2023-12-28T05:07:04;1.01;99.99
67249;SHT31;63247;54.300;18.592;2023-12-28T05:09:29;0.98;99.99
67249;SHT31;63247;54.300;18.592;2023-12-28T05:11:55;1.03;99.99
67249;SHT31;63247;54.300;18.592;2023-12-28T05:14:20;1.06;99.99
67249;SHT31;63247;54.300;18.592;2023-12-28T05:16:45;1.08;99.99
67249;SHT31;63247;54.300;18.592;2023-12-28T05:19:11;1.09;99.99
67249;SHT31;63247;54.300;18.592;2023-12-28T05:21:36;1.15;99.99
67249;SHT31;63247;54.300;18.592;2023-12-28T05:24:01;1.18;99.99
67249;SHT31;63247;54.300;18.592;2023-12-28T05:26:27;1.09;99.99
67249;SHT31;63247;54.300;18.592;2023-12-28T05:28:52;1.10;99.99
67249;SHT31;63247;54.300;18.592;2023-12-28T05:31:18;1.09;99.99
67249;SHT31;63247;54.300;18.592;2023-12-28T05:33:43;1.15;99.99
67249;SHT31;63247;54.300;18.592;2023-12-28T05:36:08;1.16;99.99
67249;SHT31;63247;54.300;18.592;2023-12-28T05:38:34;1.16;99.99
67249;SHT31;63247;54.300;18.592;2023-12-28T05:40:59;1.22;99.99
67249;SHT31;63247;54.300;18.592;2023-12-28T05:43:25;1.28;99.99
67249;SHT31;63247;54.300;18.592;2023-12-28T05:45:50;1.28;99.99
67249;SHT31;63247;54.300;18.592;2023-12-28T05:48:15;1.30;99.99
67249;SHT31;63247;54.300;18.592;2023-12-28T05:50:41;1.30;99.99
67249;SHT31;63247;54.300;18.592;2023-12-28T05:53:06;1.33;99.99
67249;SHT31;63247;54.300;18.592;2023-12-28T05:55:31;1.32;99.99
67249;SHT31;63247;54.300;18.592;2023-12-28T05:57:57;1.35;99.99
67249;SHT31;63247;54.300;18.592;2023-12-28T06:00:22;1.35;99.99
67249;SHT31;63247;54.300;18.592;2023-12-28T06:02:47;1.35;99.99
67249;SHT31;63247;54.300;18.592;2023-12-28T06:05:17;1.36;99.99
67249;SHT31;63247;54.300;18.592;2023-12-28T06:07:42;1.38;99.99
67249;SHT31;63247;54.300;18.592;2023-12-28T06:10:08;1.36;99.99
67249;SHT31;63247;54.300;18.592;2023-12-28T06:12:34;1.42;99.99
67249;SHT31;63247;54.300;18.592;2023-12-28T06:14:59;1.40;99.99
67249;SHT31;63247;54.300;18.592;2023-12-28T06:17:24;1.36;99.99
67249;SHT31;63247;54.300;18.592;2023-12-28T06:19:50;1.32;99.99
67249;SHT31;63247;54.300;18.592;2023-12-28T06:22:15;1.33;99.99
67249;SHT31;63247;54.300;18.592;2023-12-28T06:24:40;1.36;99.99
67249;SHT31;63247;54.300;18.592;2023-12-28T06:27:06;1.32;99.99
67249;SHT31;63247;54.300;18.592;2023-12-28T06:29:31;1.36;99.99
67249;SHT31;63247;54.300;18.592;2023-12-28T06:31:57;1.36;99.99
67249;SHT31;63247;54.300;18.592;2023-12-28T06:34:22;1.44;99.99
67249;SHT31;63247;54.300;18.592;2023-12-28T06:36:47;1.49;99.99
67249;SHT31;63247;54.300;18.592;2023-12-28T06:39:13;1.54;99.99
67249;SHT31;63247;54.300;18.592;2023-12-28T06:41:38;1.57;99.99
67249;SHT31;63247;54.300;18.592;2023-12-28T06:44:04;1.66;99.99
67249;SHT31;63247;54.300;18.592;2023-12-28T06:46:29;1.71;99.99
67249;SHT31;63247;54.300;18.592;2023-12-28T06:48:55;1.75;99.99
67249;SHT31;63247;54.300;18.592;2023-12-28T06:51:20;1.75;99.99
67249;SHT31;63247;54.300;18.592;2023-12-28T06:53:47;1.77;99.99
67249;SHT31;63247;54.300;18.592;2023-12-28T06:56:13;1.75;99.99
67249;SHT31;63247;54.300;18.592;2023-12-28T06:58:39;1.81;99.99
67249;SHT31;63247;54.300;18.592;2023-12-28T07:01:05;1.82;99.99
67249;SHT31;63247;54.300;18.592;2023-12-28T07:03:31;1.82;99.99
67249;SHT31;63247;54.300;18.592;2023-12-28T07:06:00;1.84;99.99
67249;SHT31;63247;54.300;18.592;2023-12-28T07:08:26;1.88;99.99
67249;SHT31;63247;54.300;18.592;2023-12-28T07:10:52;1.87;99.99
67249;SHT31;63247;54.300;18.592;2023-12-28T07:13:17;1.95;99.99
67249;SHT31;63247;54.300;18.592;2023-12-28T07:15:43;2.04;99.99
67249;SHT31;63247;54.300;18.592;2023-12-28T07:18:08;2.12;99.99
67249;SHT31;63247;54.300;18.592;2023-12-28T07:20:34;2.15;99.99
67249;SHT31;63247;54.300;18.592;2023-12-28T07:22:59;2.22;99.99
67249;SHT31;63247;54.300;18.592;2023-12-28T07:25:24;2.25;99.99
67249;SHT31;63247;54.300;18.592;2023-12-28T07:27:50;2.36;99.99
67249;SHT31;63247;54.300;18.592;2023-12-28T07:30:15;2.40;99.99
67249;SHT31;63247;54.300;18.592;2023-12-28T07:32:42;2.40;99.99
67249;SHT31;63247;54.300;18.592;2023-12-28T07:35:08;2.50;99.99
67249;SHT31;63247;54.300;18.592;2023-12-28T07:37:34;2.56;99.99
67249;SHT31;63247;54.300;18.592;2023-12-28T07:40:00;2.72;99.99
67249;SHT31;63247;54.300;18.592;2023-12-28T07:42:25;2.79;99.99
67249;SHT31;63247;54.300;18.592;2023-12-28T07:44:50;2.77;99.99
67249;SHT31;63247;54.300;18.592;2023-12-28T07:47:16;2.90;99.99
67249;SHT31;63247;54.300;18.592;2023-12-28T07:49:41;3.00;99.99
67249;SHT31;63247;54.300;18.592;2023-12-28T07:52:07;3.03;99.99
67249;SHT31;63247;54.300;18.592;2023-12-28T07:54:32;3.08;99.99
67249;SHT31;63247;54.300;18.592;2023-12-28T07:56:57;3.11;99.99
67249;SHT31;63247;54.300;18.592;2023-12-28T07:59:23;3.12;99.99
67249;SHT31;63247;54.300;18.592;2023-12-28T08:01:48;3.11;99.99
67249;SHT31;63247;54.300;18.592;2023-12-28T08:04:13;3.19;99.99
67249;SHT31;63247;54.300;18.592;2023-12-28T08:06:39;3.28;99.99
67249;SHT31;63247;54.300;18.592;2023-12-28T08:09:04;3.26;99.99
67249;SHT31;63247;54.300;18.592;2023-12-28T08:11:29;3.22;99.99
67249;SHT31;63247;54.300;18.592;2023-12-28T08:13:55;3.24;99.99
67249;SHT31;63247;54.300;18.592;2023-12-28T08:16:20;3.22;99.99
67249;SHT31;63247;54.300;18.592;2023-12-28T08:18:46;3.36;99.99
67249;SHT31;63247;54.300;18.592;2023-12-28T08:21:12;3.45;99.99
67249;SHT31;63247;54.300;18.592;2023-12-28T08:23:37;3.40;99.99
67249;SHT31;63247;54.300;18.592;2023-12-28T08:26:03;3.51;99.99
67249;SHT31;63247;54.300;18.592;2023-12-28T08:28:28;3.52;99.99
67249;SHT31;63247;54.300;18.592;2023-12-28T08:30:56;3.72;99.99
67249;SHT31;63247;54.300;18.592;2023-12-28T08:33:22;3.90;99.99
67249;SHT31;63247;54.300;18.592;2023-12-28T08:35:48;3.86;99.99
67249;SHT31;63247;54.300;18.592;2023-12-28T08:38:13;3.93;99.99
67249;SHT31;63247;54.300;18.592;2023-12-28T08:40:38;3.95;99.99
67249;SHT31;63247;54.300;18.592;2023-12-28T08:43:04;3.98;99.99
67249;SHT31;63247;54.300;18.592;2023-12-28T08:45:29;4.08;99.99
67249;SHT31;63247;54.300;18.592;2023-12-28T08:47:55;4.14;99.99
67249;SHT31;63247;54.300;18.592;2023-12-28T08:50:21;4.14;99.99
67249;SHT31;63247;54.300;18.592;2023-12-28T08:52:46;4.42;99.99
67249;SHT31;63247;54.300;18.592;2023-12-28T08:55:11;4.38;99.99
67249;SHT31;63247;54.300;18.592;2023-12-28T08:57:37;4.32;99.99
67249;SHT31;63247;54.300;18.592;2023-12-28T09:00:05;4.44;99.99
67249;SHT31;63247;54.300;18.592;2023-12-28T09:02:30;4.44;99.99
67249;SHT31;63247;54.300;18.592;2023-12-28T09:04:58;4.52;99.99
67249;SHT31;63247;54.300;18.592;2023-12-28T09:07:23;4.41;99.99
67249;SHT31;63247;54.300;18.592;2023-12-28T09:09:49;4.45;99.99
67249;SHT31;63247;54.300;18.592;2023-12-28T09:12:14;4.37;99.99
67249;SHT31;63247;54.300;18.592;2023-12-28T09:14:39;4.39;99.99
67249;SHT31;63247;54.300;18.592;2023-12-28T09:17:05;4.48;99.99
67249;SHT31;63247;54.300;18.592;2023-12-28T09:19:30;4.51;99.99
67249;SHT31;63247;54.300;18.592;2023-12-28T09:21:55;4.59;99.99
67249;SHT31;63247;54.300;18.592;2023-12-28T09:24:21;4.62;99.99
67249;SHT31;63247;54.300;18.592;2023-12-28T09:26:47;4.60;99.99
67249;SHT31;63247;54.300;18.592;2023-12-28T09:29:12;4.60;99.99
67249;SHT31;63247;54.300;18.592;2023-12-28T09:31:39;4.70;99.99
67249;SHT31;63247;54.300;18.592;2023-12-28T09:34:04;4.72;99.99
67249;SHT31;63247;54.300;18.592;2023-12-28T09:36:30;4.77;99.99
67249;SHT31;63247;54.300;18.592;2023-12-28T09:38:56;4.90;99.99
67249;SHT31;63247;54.300;18.592;2023-12-28T09:41:27;4.91;99.99
67249;SHT31;63247;54.300;18.592;2023-12-28T09:44:05;5.06;99.99
67249;SHT31;63247;54.300;18.592;2023-12-28T09:46:32;5.08;99.99
67249;SHT31;63247;54.300;18.592;2023-12-28T09:48:58;5.13;99.99
67249;SHT31;63247;54.300;18.592;2023-12-28T09:51:25;5.17;99.99
67249;SHT31;63247;54.300;18.592;2023-12-28T09:53:50;5.37;99.99
67249;SHT31;63247;54.300;18.592;2023-12-28T09:56:16;5.37;99.99
67249;SHT31;63247;54.300;18.592;2023-12-28T09:58:42;5.39;99.99
67249;SHT31;63247;54.300;18.592;2023-12-28T10:01:09;5.39;99.99
67249;SHT31;63247;54.300;18.592;2023-12-28T10:03:35;5.48;99.99
67249;SHT31;63247;54.300;18.592;2023-12-28T10:06:00;5.48;99.99
67249;SHT31;63247;54.300;18.592;2023-12-28T10:08:26;5.44;99.99
67249;SHT31;63247;54.300;18.592;2023-12-28T10:10:52;5.58;99.99
67249;SHT31;63247;54.300;18.592;2023-12-28T10:13:20;5.59;99.99
67249;SHT31;63247;54.300;18.592;2023-12-28T10:15:45;5.56;99.99
67249;SHT31;63247;54.300;18.592;2023-12-28T10:18:11;5.59;99.99
67249;SHT31;63247;54.300;18.592;2023-12-28T10:20:37;5.69;99.99
67249;SHT31;63247;54.300;18.592;2023-12-28T10:23:03;5.60;99.99
67249;SHT31;63247;54.300;18.592;2023-12-28T10:25:29;5.68;99.99
67249;SHT31;63247;54.300;18.592;2023-12-28T10:27:55;5.72;99.99
67249;SHT31;63247;54.300;18.592;2023-12-28T10:30:21;5.58;99.99
67249;SHT31;63247;54.300;18.592;2023-12-28T10:32:46;5.60;99.99
67249;SHT31;63247;54.300;18.592;2023-12-28T10:35:12;5.60;99.99
67249;SHT31;63247;54.300;18.592;2023-12-28T10:37:39;5.59;99.99
67249;SHT31;63247;54.300;18.592;2023-12-28T10:40:12;5.70;99.99
67249;SHT31;63247;54.300;18.592;2023-12-28T10:42:58;5.70;99.99
67249;SHT31;63247;54.300;18.592;2023-12-28T10:45:29;5.69;99.99
67249;SHT31;63247;54.300;18.592;2023-12-28T10:48:11;5.62;99.99
67249;SHT31;63247;54.300;18.592;2023-12-28T10:53:44;5.80;99.99
67249;SHT31;63247;54.300;18.592;2023-12-28T10:56:35;5.77;99.99
67249;SHT31;63247;54.300;18.592;2023-12-28T10:59:14;5.75;99.99
67249;SHT31;63247;54.300;18.592;2023-12-28T11:01:43;5.75;99.99
67249;SHT31;63247;54.300;18.592;2023-12-28T11:04:31;5.58;99.99
67249;SHT31;63247;54.300;18.592;2023-12-28T11:07:01;5.68;99.99
67249;SHT31;63247;54.300;18.592;2023-12-28T11:09:30;5.72;99.99
67249;SHT31;63247;54.300;18.592;2023-12-28T11:11:57;5.70;99.99
67249;SHT31;63247;54.300;18.592;2023-12-28T11:14:27;5.60;99.99
67249;SHT31;63247;54.300;18.592;2023-12-28T11:16:53;5.69;99.99
67249;SHT31;63247;54.300;18.592;2023-12-28T11:19:19;5.70;99.99
67249;SHT31;63247;54.300;18.592;2023-12-28T11:21:47;5.77;99.99
67249;SHT31;63247;54.300;18.592;2023-12-28T11:24:13;5.90;99.99
67249;SHT31;63247;54.300;18.592;2023-12-28T11:26:39;6.00;99.99
67249;SHT31;63247;54.300;18.592;2023-12-28T11:29:04;6.16;99.99
67249;SHT31;63247;54.300;18.592;2023-12-28T11:31:33;6.14;99.99
67249;SHT31;63247;54.300;18.592;2023-12-28T11:34:00;6.17;99.99
67249;SHT31;63247;54.300;18.592;2023-12-28T11:36:33;6.21;99.99
67249;SHT31;63247;54.300;18.592;2023-12-28T11:39:03;6.25;99.99
67249;SHT31;63247;54.300;18.592;2023-12-28T11:41:32;6.27;99.99
67249;SHT31;63247;54.300;18.592;2023-12-28T11:44:02;6.33;99.99
67249;SHT31;63247;54.300;18.592;2023-12-28T11:46:30;6.31;99.99
67249;SHT31;63247;54.300;18.592;2023-12-28T11:49:09;6.41;99.99
67249;SHT31;63247;54.300;18.592;2023-12-28T11:51:39;6.48;99.99
67249;SHT31;63247;54.300;18.592;2023-12-28T11:54:05;6.59;99.99
67249;SHT31;63247;54.300;18.592;2023-12-28T11:56:30;6.59;99.99
67249;SHT31;63247;54.300;18.592;2023-12-28T11:58:56;6.65;99.99
67249;SHT31;63247;54.300;18.592;2023-12-28T12:01:23;6.64;99.99
67249;SHT31;63247;54.300;18.592;2023-12-28T12:03:49;6.68;99.99
67249;SHT31;63247;54.300;18.592;2023-12-28T12:06:15;6.64;99.99
67249;SHT31;63247;54.300;18.592;2023-12-28T12:08:45;6.58;99.99
67249;SHT31;63247;54.300;18.592;2023-12-28T12:11:12;6.65;99.99
67249;SHT31;63247;54.300;18.592;2023-12-28T12:13:37;6.59;99.99
67249;SHT31;63247;54.300;18.592;2023-12-28T12:16:03;6.54;99.99
67249;SHT31;63247;54.300;18.592;2023-12-28T12:18:32;6.59;99.99
67249;SHT31;63247;54.300;18.592;2023-12-28T12:20:57;6.59;99.99
67249;SHT31;63247;54.300;18.592;2023-12-28T12:23:23;6.62;99.99
67249;SHT31;63247;54.300;18.592;2023-12-28T12:25:48;6.58;99.99
67249;SHT31;63247;54.300;18.592;2023-12-28T12:28:14;6.58;99.99
67249;SHT31;63247;54.300;18.592;2023-12-28T12:30:40;6.59;99.99
67249;SHT31;63247;54.300;18.592;2023-12-28T12:33:05;6.64;99.99
67249;SHT31;63247;54.300;18.592;2023-12-28T12:35:31;6.69;99.99
67249;SHT31;63247;54.300;18.592;2023-12-28T12:37:56;6.72;99.99
67249;SHT31;63247;54.300;18.592;2023-12-28T12:40:22;6.76;99.99
67249;SHT31;63247;54.300;18.592;2023-12-28T12:42:54;6.82;99.99
67249;SHT31;63247;54.300;18.592;2023-12-28T12:45:20;6.76;99.99
67249;SHT31;63247;54.300;18.592;2023-12-28T12:47:48;6.83;99.99
67249;SHT31;63247;54.300;18.592;2023-12-28T12:50:15;6.75;99.99
67249;SHT31;63247;54.300;18.592;2023-12-28T12:52:41;6.78;99.99
67249;SHT31;63247;54.300;18.592;2023-12-28T12:55:11;6.78;99.99
67249;SHT31;63247;54.300;18.592;2023-12-28T12:57:37;6.82;99.99
67249;SHT31;63247;54.300;18.592;2023-12-28T13:00:04;6.81;99.99
67249;SHT31;63247;54.300;18.592;2023-12-28T13:02:33;6.78;99.99
67249;SHT31;63247;54.300;18.592;2023-12-28T13:04:59;6.85;99.99
67249;SHT31;63247;54.300;18.592;2023-12-28T13:07:24;6.82;99.99
67249;SHT31;63247;54.300;18.592;2023-12-28T13:09:50;6.79;99.99
67249;SHT31;63247;54.300;18.592;2023-12-28T13:12:15;6.76;99.99
67249;SHT31;63247;54.300;18.592;2023-12-28T13:14:41;6.73;99.99
67249;SHT31;63247;54.300;18.592;2023-12-28T13:17:06;6.81;99.99
67249;SHT31;63247;54.300;18.592;2023-12-28T13:19:32;6.82;99.99
67249;SHT31;63247;54.300;18.592;2023-12-28T13:21:57;6.76;99.99
67249;SHT31;63247;54.300;18.592;2023-12-28T13:24:23;6.81;99.99
67249;SHT31;63247;54.300;18.592;2023-12-28T13:26:48;6.85;99.99
67249;SHT31;63247;54.300;18.592;2023-12-28T13:29:13;6.81;99.99
67249;SHT31;63247;54.300;18.592;2023-12-28T13:31:39;6.78;99.99
67249;SHT31;63247;54.300;18.592;2023-12-28T13:34:04;6.72;99.99
67249;SHT31;63247;54.300;18.592;2023-12-28T13:36:30;6.72;99.99
67249;SHT31;63247;54.300;18.592;2023-12-28T13:38:56;6.72;99.99
67249;SHT31;63247;54.300;18.592;2023-12-28T13:41:21;6.64;99.99
67249;SHT31;63247;54.300;18.592;2023-12-28T13:43:46;6.67;99.99
67249;SHT31;63247;54.300;18.592;2023-12-28T13:46:12;6.58;99.99
67249;SHT31;63247;54.300;18.592;2023-12-28T13:48:37;6.62;99.99
67249;SHT31;63247;54.300;18.592;2023-12-28T13:51:06;6.61;99.99
67249;SHT31;63247;54.300;18.592;2023-12-28T13:53:31;6.52;99.99
67249;SHT31;63247;54.300;18.592;2023-12-28T13:56:01;6.46;99.99
67249;SHT31;63247;54.300;18.592;2023-12-28T13:58:26;6.46;99.99
67249;SHT31;63247;54.300;18.592;2023-12-28T14:00:51;6.38;99.99
67249;SHT31;63247;54.300;18.592;2023-12-28T14:03:17;6.37;99.99
67249;SHT31;63247;54.300;18.592;2023-12-28T14:05:42;6.31;99.99
67249;SHT31;63247;54.300;18.592;2023-12-28T14:08:08;6.28;99.99
67249;SHT31;63247;54.300;18.592;2023-12-28T14:10:33;6.14;99.99
67249;SHT31;63247;54.300;18.592;2023-12-28T14:12:59;6.11;99.99
67249;SHT31;63247;54.300;18.592;2023-12-28T14:15:24;6.18;99.99
67249;SHT31;63247;54.300;18.592;2023-12-28T14:17:49;6.16;99.99
67249;SHT31;63247;54.300;18.592;2023-12-28T14:20:15;6.09;99.99
67249;SHT31;63247;54.300;18.592;2023-12-28T14:22:41;6.00;99.99
67249;SHT31;63247;54.300;18.592;2023-12-28T14:25:06;6.03;99.99
67249;SHT31;63247;54.300;18.592;2023-12-28T14:27:32;5.92;99.99
67249;SHT31;63247;54.300;18.592;2023-12-28T14:29:58;5.95;99.99
67249;SHT31;63247;54.300;18.592;2023-12-28T14:32:24;5.95;99.99
67249;SHT31;63247;54.300;18.592;2023-12-28T14:34:49;5.90;99.99
67249;SHT31;63247;54.300;18.592;2023-12-28T14:37:15;5.87;99.99
67249;SHT31;63247;54.300;18.592;2023-12-28T14:39:40;5.76;99.99
67249;SHT31;63247;54.300;18.592;2023-12-28T14:42:06;5.79;99.99
67249;SHT31;63247;54.300;18.592;2023-12-28T14:44:32;5.73;99.99
67249;SHT31;63247;54.300;18.592;2023-12-28T14:46:57;5.75;99.99
67249;SHT31;63247;54.300;18.592;2023-12-28T14:49:23;5.76;99.99
67249;SHT31;63247;54.300;18.592;2023-12-28T14:51:48;5.79;99.99
67249;SHT31;63247;54.300;18.592;2023-12-28T14:54:14;5.73;99.99
67249;SHT31;63247;54.300;18.592;2023-12-28T14:56:39;5.75;99.99
67249;SHT31;63247;54.300;18.592;2023-12-28T14:59:05;5.68;99.99
67249;SHT31;63247;54.300;18.592;2023-12-28T15:01:30;5.65;99.99
67249;SHT31;63247;54.300;18.592;2023-12-28T15:03:55;5.68;99.99
67249;SHT31;63247;54.300;18.592;2023-12-28T15:06:21;5.65;99.99
67249;SHT31;63247;54.300;18.592;2023-12-28T15:08:46;5.69;99.99
67249;SHT31;63247;54.300;18.592;2023-12-28T15:11:12;5.68;99.99
67249;SHT31;63247;54.300;18.592;2023-12-28T15:13:38;5.73;99.99
67249;SHT31;63247;54.300;18.592;2023-12-28T15:16:04;5.65;99.99
67249;SHT31;63247;54.300;18.592;2023-12-28T15:18:30;5.72;99.99
67249;SHT31;63247;54.300;18.592;2023-12-28T15:20:56;5.69;99.99
67249;SHT31;63247;54.300;18.592;2023-12-28T15:23:22;5.70;99.99
67249;SHT31;63247;54.300;18.592;2023-12-28T15:25:47;5.65;99.99